• Join FlightAware (Why Join?)
  • Login
  • US Flag 
10:52AM EDT


 

Airport Tracker/Info


-or-


 

Live Flight TrackerFlight Track Log ✈ USC105 ✈ 15-Apr-2013 ✈ KYIP - KDPA

Flight Track Log - Related Links

Times and Time Zones

All times are in EDT time to prevent confusion due to time zone crossing. See the USC105 flight status page for this flight to view local times or setup timezone preferences in your user account.

Time Position Orientation Groundspeed Altitude Reporting Facility
EDT Latitude Longitude Course Direction KTS MPH feet Rate Location/Type
12:20AM 42.2192 -83.5747 258° West 107 123 2,300  Level Cleveland Center
12:21AM 42.2139 -83.6167 260° West 103 119 3,200 780 Climbing Cleveland Center
12:22AM 42.2128 -83.6586 268° West 109 125 3,900 360 Climbing Cleveland Center
12:23AM 42.2092 -83.7089 264° West 141 162 4,000  Climbing Cleveland Center
12:24AM 42.2078 -83.7594 268° West 138 159 3,900 -60 Descending Cleveland Center
12:25AM 42.2064 -83.8125 268° West 152 175 3,900  Level Cleveland Center
12:27AM 42.2047 -83.9077 269° West  Level FlightAware Approximate
12:28AM 42.1986 -83.9861 269° West 182 209 3,900  Level Chicago Center
12:29AM 42.1964 -84.0439 267° West 157 181 3,900  Level Chicago Center
12:30AM 42.1925 -84.1017 265° West 156 180 3,900  Level Chicago Center
12:31AM 42.1894 -84.1611 266° West 158 182 3,900  Level Chicago Center
12:32AM 42.1872 -84.2186 267° West 157 181 3,900  Level Chicago Center
12:33AM 42.1842 -84.2753 266° West 155 178 3,900  Level Chicago Center
12:34AM 42.1808 -84.3325 266° West 154 177 3,900  Level Chicago Center
12:35AM 42.1781 -84.3889 266° West 152 175 3,900  Level Chicago Center
12:36AM 42.1747 -84.4464 266° West 153 176 3,900  Level Chicago Center
12:37AM 42.1719 -84.5019 266° West 152 175 3,900  Level Chicago Center
12:38AM 42.1681 -84.5578 265° West 151 174 3,900  Level Chicago Center
12:39AM 42.1650 -84.6133 266° West 150 173 3,900  Level Chicago Center
12:40AM 42.1622 -84.6697 266° West 150 173 3,900  Level Chicago Center
12:41AM 42.1592 -84.7258 266° West 151 174 3,900  Level Chicago Center
12:42AM 42.1556 -84.7811 265° West 150 173 3,900  Level Chicago Center
12:43AM 42.1525 -84.8353 266° West 148 170 3,900  Level Chicago Center
12:44AM 42.1492 -84.8928 266° West 152 175 3,900  Level Chicago Center
12:45AM 42.1450 -84.9522 265° West 158 182 3,900  Level Chicago Center
12:46AM 42.1411 -85.0250 266° West 163 188 3,900  Level Chicago Center
12:47AM 42.1372 -85.0864 265° West 164 189 3,900  Level Chicago Center
12:48AM 42.1350 -85.1481 267° West 165 190 4,000  Climbing Chicago Center
12:49AM 42.1294 -85.2106 263° West 168 193 3,900 -60 Descending Chicago Center
12:50AM 42.1258 -85.2736 266° West 170 196 3,900  Level Chicago Center
12:51AM 42.1236 -85.3358 267° West 169 194 3,900  Level Chicago Center
12:52AM 42.1186 -85.3981 264° West 168 193 3,900  Level Chicago Center
12:53AM 42.1147 -85.4603 265° West 168 193 3,900  Level Chicago Center
12:54AM 42.1114 -85.5231 266° West 169 194 4,000  Climbing Chicago Center
12:55AM 42.1058 -85.5869 263° West 171 197 3,900 -60 Descending Chicago Center
12:56AM 42.1028 -85.6517 266° West 173 199 3,900  Level Chicago Center
12:57AM 42.0986 -85.7150 265° West 172 198 4,000  Climbing Chicago Center
12:58AM 42.0944 -85.7786 265° West 171 197 4,000 -60 Level Chicago Center
12:59AM 42.0892 -85.8425 264° West 173 199 3,900 -60 Descending Chicago Center
01:00AM 42.0850 -85.9056 265° West 171 197 3,900  Level Chicago Center
01:01AM 42.0808 -85.9681 265° West 170 196 3,900  Level Chicago Center
01:02AM 42.0769 -86.0300 265° West 168 193 4,000  Climbing Chicago Center
01:03AM 42.0731 -86.0919 265° West 167 192 3,900 -60 Descending Chicago Center
01:04AM 42.0689 -86.1567 265° West 172 198 3,900  Level Chicago Center
01:05AM 42.0639 -86.2200 264° West 171 197 3,900  Level Chicago Center
01:06AM 42.0594 -86.2853 265° West 174 200 3,900  Level Chicago Center
01:07AM 42.0556 -86.3483 265° West 172 198 3,900  Level Chicago Center
01:08AM 42.0511 -86.4111 265° West 170 196 3,900  Level Chicago Center
01:09AM 42.0467 -86.4728 264° West 167 192 3,900  Level Chicago Center
01:10AM 42.0425 -86.5350 265° West 166 191 3,900  Level Chicago Center
01:11AM 42.0367 -86.6072 264° West 164 189 3,900  Level Chicago Center
01:12AM 42.0325 -86.6703 265° West 168 193 3,900  Level Chicago Center
01:13AM 42.0289 -86.7250 265° West 169 194 3,900  Level Chicago Center
01:14AM 42.0236 -86.7850 263° West 164 189 3,900  Level Chicago Center
01:15AM 42.0200 -86.8456 265° West 163 188 3,900  Level Chicago Center
01:16AM 42.0153 -86.9072 264° West 166 191 3,900  Level Chicago Center
01:17AM 42.0114 -86.9669 265° West 163 188 3,900  Level Chicago Center
01:18AM 42.0067 -87.0275 264° West 164 189 3,900  Level Chicago Center
01:19AM 42.0011 -87.0997 264° West 163 188 3,900 -60 Level Chicago Center
01:20AM 41.9958 -87.1617 263° West 166 191 3,800 -300 Descending Chicago Center
01:21AM 41.9914 -87.2261 265° West 172 198 3,300 -480 Descending Chicago Center
01:22AM 41.9858 -87.2908 263° West 174 200 2,900 -240 Descending Chicago Center
01:23AM 41.9506 -87.3358 223° Southwest 173 199 2,900  Level Chicago Center
01:24AM 41.9147 -87.3775 221° Southwest 171 197 2,900  Level Chicago Center
01:25AM 41.9000 -87.4000 229° Southwest 174 200 2,900 480 Level Chicago TRACON
01:26AM 41.8667 -87.4333 217° Southwest 152 175 3,600 600 Climbing Chicago TRACON
01:26AM 41.8450 -87.4528 214° Southwest 163 188 3,900 180 Climbing Chicago Center
01:27AM 41.8289 -87.5075 248° West 161 185 3,900  Level Chicago Center
01:28AM 41.8142 -87.5672 252° West 167 192 3,900  Level Chicago Center
01:29AM 41.8047 -87.6269 258° West 167 192 3,900  Level Chicago Center
01:30AM 41.8000 -87.6500 255° West 167 192 3,900  Level Chicago TRACON
01:31AM 41.8000 -87.7167 270° West 159 183 3,900  Level Chicago TRACON
01:32AM 41.8000 -87.7667 270° West 152 175 3,900  Level Chicago TRACON
01:33AM 41.8000 -87.8333 270° West 148 170 3,900 -300 Level Chicago TRACON
01:34AM 41.8167 -87.8833 294° West 158 182 3,400 -600 Descending Chicago TRACON
01:34AM 41.8219 -87.9108 284° West 154 177 3,000 -720 Descending Chicago Center
01:35AM 41.8383 -87.9653 292° West 157 181 2,300 -420 Descending Chicago Center
01:36AM 41.8533 -88.0183 291° West 157 181 2,200 -300 Descending Chicago Center
01:37AM 41.8672 -88.0686 290° West 152 175 1,800 -300 Descending Chicago Center
01:38AM 41.8833 -88.1000 305° West 137 158 1,800 -120 Level Chicago TRACON
01:39AM 41.8833 -88.1333 270° West 134 154 1,700 -240 Descending Chicago TRACON
01:39AM 41.8958 -88.1611 301° West 140 161 1,500 -300 Descending Chicago Center
01:40AM 41.9081 -88.2039 291° West 133 153 1,300 -300 Descending Chicago Center
01:41AM 41.9167 -88.2489 284° West 125 144 1,000 -300 Descending Chicago Center
01:43AM 41.9071 -88.2480 270° West  Level Estimated